Littlerock, WA

8:32 AM PST on December 05, 2016 (GMT -0800)
Waddell Creek | | Change Station
Active Advisory: Winter Weather Advisory Active Notice: Public Information Statement

Elev 276 ft 46.92 °N, 123.05 °W | Updated 7 seconds ago

Overcast
Overcast
30.2 °F
Feels Like 30 °F
N
0.0
Wind Variable Wind from SE

Today
High -- | Low -- °F
--% Chance of Precip.
Yesterday
High -- | Low -- °F
Precip. -- in
Pressure 30.10 in
Visibility 5.0 miles
Clouds Overcast 800 ft
Windchill 30 °F
Dew Point 30 °F
Humidity 99%
Rainfall 0.02 in
Snow Depth Not available.
7:42 AM 4:23 PM
Waxing Crescent, 33% visible
METAR KOLM 051554Z 27006KT 5SM BR OVC008 01/01 A3009 RMK AO2 RAB00E01SNE00 CIG 005V011 SLP191 P0000 T00110011
Pressure 30.10 in
Visibility 5.0 miles
Clouds Overcast 800 ft
Windchill 30 °F
Dew Point 30 °F
Humidity 99%
Rainfall 0.02 in
Snow Depth Not available.
7:42 AM 4:23 PM
Waxing Crescent, 33% visible
METAR KOLM 051554Z 27006KT 5SM BR OVC008 01/01 A3009 RMK AO2 RAB00E01SNE00 CIG 005V011 SLP191 P0000 T00110011

10-Day Weather Forecast

Almanac

Astronomy

Dec. 05, 2016 Rise Set
Actual Time
Civil Twilight
Nautical Twilight
Astronomical Twilight
Moon
Length of Visible Light
Length of Day
Tomorrow will be .
, % of the Moon is Illuminated

Today's Extremes

State Highs State Lows

Community

WunderPhotos

Upload Photos

1,955,819 photos uploaded!

WunderBlog® & News

Nearby

Air Quality

  Air Quality AQ Index Pollutant
Not available.

Snow Depth

Station Depth Elevation

Earthquake Activity

City Distance Mag. Time & Date
Minimum magnitude displayed is 2.5.

Coastal Water Temperatures

Place Temperature

Stations

Nearby Weather Stations

Station Location Temp. Windchill Dew Point Humidity Wind Precip. Elev Updated Type
                   

Watches & Warnings

Winter Weather Advisory
Issued: 4:15 AM PST Dec. 5, 2016 – National Weather Service

... Winter Weather Advisory remains in effect until noon PST today...

* timing... this morning between 4 am and noon.

* Snow amounts... up to two inches of snow above 500 feet. Accumulation
less than one inch below 500 feet.

* Snow levels... mainly near 500 feet.

* Impacts... hazardous driving conditions are possible during the
morning commute today mainly on the higher hills.

Precautionary/preparedness actions...

A Winter Weather Advisory for snow means that periods of snow could
cause travel difficulties. Use caution while driving.